Time;durP1;ratioP1;P1;durP2;ratioP2;P2;SDS_P1;SDS_P2;PMS_P1;PMS_P2;Temp;Humidity;BMP_temperature;BMP_pressure;BME280_temperature;BME280_humidity;BME280_pressure;Samples;Min_cycle;Max_cycle;Signal;HPM_P1;HPM_P2
2022/09/03 00:00:36;;;;;;;7.93;7.20;;;;;;;;;;5034250;28;20076;-71
2022/09/03 00:03:23;;;;;;;8.18;7.45;;;;;;;;;;5034642;28;20092;-71
2022/09/03 00:06:08;;;;;;;7.57;6.75;;;;;;;;;;5033863;28;20096;-71
2022/09/03 00:08:41;;;;;;;7.72;6.72;;;;;;;;;;5034765;28;20053;-71
2022/09/03 00:11:19;;;;;;;8.35;7.05;;;;;;;;;;5034528;28;20456;-71
2022/09/03 00:13:50;;;;;;;7.28;6.57;;;;;;;;;;5034654;28;20844;-71
2022/09/03 00:16:18;;;;;;;7.28;6.65;;;;;;;;;;5034986;28;20440;-71
2022/09/03 00:18:47;;;;;;;8.02;7.28;;;;;;;;;;5034394;28;20504;-71
2022/09/03 00:21:19;;;;;;;10.07;7.07;;;;;;;;;;5034378;28;20045;-71
2022/09/03 00:23:46;;;;;;;7.32;6.63;;;;;;;;;;5034200;28;20132;-71
2022/09/03 00:26:13;;;;;;;;;;;;;;;;;;5034573;28;20073;-71
2022/09/03 00:28:51;;;;;;;8.48;7.45;;;;;;;;;;5034483;28;19920;-71
2022/09/03 00:31:37;;;;;;;8.15;7.45;;;;;;;;;;5034369;28;20080;-71
2022/09/03 00:34:11;;;;;;;7.85;7.15;;;;;;;;;;5034479;28;20461;-71
2022/09/03 00:36:41;;;;;;;7.65;6.95;;;;;;;;;;5033712;28;20042;-71
2022/09/03 00:39:08;;;;;;;8.63;7.38;;;;;;;;;;5034317;28;20140;-71
2022/09/03 00:41:37;;;;;;;8.68;7.88;;;;;;;;;;5033877;28;20081;-70
2022/09/03 00:44:10;;;;;;;7.53;6.82;;;;;;;;;;5033826;28;20497;-71
2022/09/03 00:46:38;;;;;;;9.43;8.45;;;;;;;;;;5033735;28;20049;-71
2022/09/03 00:49:10;;;;;;;9.02;8.13;;;;;;;;;;5033861;28;20404;-71
2022/09/03 00:51:43;;;;;;;8.70;8.00;;;;;;;;;;5033744;28;20150;-71
2022/09/03 00:54:19;;;;;;;9.73;8.73;;;;;;;;;;5034105;28;20107;-71
2022/09/03 00:56:45;;;;;;;10.48;9.45;;;;;;;;;;5033911;28;20470;-71
2022/09/03 00:59:35;;;;;;;9.48;8.48;;;;;;;;;;5033633;28;20103;-71
2022/09/03 01:02:04;;;;;;;8.95;8.15;;;;;;;;;;5033799;28;20119;-71
2022/09/03 01:04:38;;;;;;;9.57;8.57;;;;;;;;;;5033443;28;20497;-71
2022/09/03 01:07:14;;;;;;;8.98;8.27;;;;;;;;;;5033418;28;20077;-71
2022/09/03 01:09:56;;;;;;;8.63;7.93;;;;;;;;;;5033765;28;20041;-71
2022/09/03 01:12:23;;;;;;;8.80;8.07;;;;;;;;;;5033283;28;20053;-71
2022/09/03 01:14:53;;;;;;;8.63;7.90;;;;;;;;;;5033351;28;20551;-71
2022/09/03 01:17:38;;;;;;;7.93;7.22;;;;;;;;;;5033180;28;20533;-71
2022/09/03 01:20:44;;;;;;;8.55;7.80;;;;;;;;;;5031990;28;20493;-71
2022/09/03 01:23:42;;;;;;;8.25;7.55;;;;;;;;;;5030722;28;20085;-71
2022/09/03 01:26:30;;;;;;;9.45;8.20;;;;;;;;;;4988700;28;20227;-70
2022/09/03 01:28:56;;;;;;;;;;;;;;;;;;5033026;28;20046;-70
2022/09/03 01:31:42;;;;;;;9.73;8.77;;;;;;;;;;5033292;28;19925;-70
2022/09/03 01:34:14;;;;;;;14.60;13.10;;;;;;;;;;5033032;28;20050;-70
2022/09/03 01:36:41;;;;;;;17.35;15.43;;;;;;;;;;5033103;28;20049;-70
2022/09/03 01:39:12;;;;;;;23.08;19.88;;;;;;;;;;5032809;28;20075;-70
2022/09/03 01:44:43;;;;;;;17.48;15.25;;;;;;;;;;5032920;28;20080;-70
2022/09/03 01:47:10;;;;;;;17.83;15.68;;;;;;;;;;5032962;28;20071;-70
2022/09/03 01:49:48;;;;;;;17.80;16.05;;;;;;;;;;5032124;28;20052;-70
2022/09/03 01:52:35;;;;;;;15.90;13.30;;;;;;;;;;5032617;28;20046;-70
2022/09/03 01:55:20;;;;;;;12.32;11.02;;;;;;;;;;5032486;28;20080;-70
2022/09/03 01:57:54;;;;;;;12.68;11.38;;;;;;;;;;5032553;28;20103;-70
2022/09/03 02:00:21;;;;;;;18.95;15.95;;;;;;;;;;5032664;28;20057;-70
2022/09/03 02:02:52;;;;;;;21.83;17.92;;;;;;;;;;5032489;28;20053;-70
2022/09/03 02:05:23;;;;;;;22.90;18.80;;;;;;;;;;5032590;28;20053;-70
2022/09/03 02:07:54;;;;;;;24.70;19.73;;;;;;;;;;5032737;28;20049;-70
2022/09/03 02:10:23;;;;;;;23.23;19.48;;;;;;;;;;5031086;28;20508;-70
2022/09/03 02:12:52;;;;;;;23.23;19.35;;;;;;;;;;5032208;28;20469;-70
2022/09/03 02:15:20;;;;;;;21.25;17.08;;;;;;;;;;5032196;28;20555;-70
2022/09/03 02:17:46;;;;;;;;;;;;;;;;;;5032536;28;20138;-70
2022/09/03 02:20:18;;;;;;;20.65;17.48;;;;;;;;;;5032368;28;19928;-70
2022/09/03 02:22:46;;;;;;;18.15;15.45;;;;;;;;;;5031873;28;20050;-70
2022/09/03 02:25:13;;;;;;;17.70;15.90;;;;;;;;;;5031980;28;20104;-70
2022/09/03 02:27:39;;;;;;;15.40;13.80;;;;;;;;;;5031941;28;20049;-71
2022/09/03 02:30:06;;;;;;;17.95;15.82;;;;;;;;;;5031995;28;20497;-71
2022/09/03 02:32:32;;;;;;;15.97;14.37;;;;;;;;;;5032190;28;20135;-71
2022/09/03 02:34:59;;;;;;;24.17;17.52;;;;;;;;;;5032206;28;20329;-71
2022/09/03 02:37:25;;;;;;;18.50;15.15;;;;;;;;;;5032122;28;20049;-71
2022/09/03 02:39:52;;;;;;;16.10;14.25;;;;;;;;;;5031791;28;20053;-71
2022/09/03 02:42:19;;;;;;;17.58;15.45;;;;;;;;;;5031777;28;20072;-71
2022/09/03 02:44:59;;;;;;;16.33;14.63;;;;;;;;;;5031572;28;20091;-71
2022/09/03 02:47:30;;;;;;;22.83;18.58;;;;;;;;;;5031957;28;20115;-70
2022/09/03 02:49:56;;;;;;;21.80;17.27;;;;;;;;;;5032042;28;20077;-70
2022/09/03 02:52:23;;;;;;;24.10;17.75;;;;;;;;;;5019163;28;20072;-70
2022/09/03 02:54:49;;;;;;;22.95;18.60;;;;;;;;;;5031584;28;20107;-70
2022/09/03 02:57:16;;;;;;;25.85;20.05;;;;;;;;;;5031558;28;20563;-71
2022/09/03 02:59:49;;;;;;;21.20;17.30;;;;;;;;;;5031768;28;20099;-71
2022/09/03 03:02:15;;;;;;;26.70;21.13;;;;;;;;;;5031532;28;20493;-71
2022/09/03 03:04:42;;;;;;;26.77;19.92;;;;;;;;;;5031850;28;20456;-71
2022/09/03 03:07:08;;;;;;;26.27;20.75;;;;;;;;;;5031461;28;20084;-71
2022/09/03 03:09:34;;;;;;;23.48;19.50;;;;;;;;;;5031763;28;20076;-71
2022/09/03 03:12:01;;;;;;;26.40;20.17;;;;;;;;;;5031518;28;20538;-71
2022/09/03 03:14:28;;;;;;;25.88;20.23;;;;;;;;;;5031483;28;20413;-71
2022/09/03 03:16:54;;;;;;;30.48;21.70;;;;;;;;;;5031522;28;20076;-71
2022/09/03 03:19:21;;;;;;;29.75;21.67;;;;;;;;;;5031589;28;20046;-71
2022/09/03 03:21:47;;;;;;;29.58;22.20;;;;;;;;;;5031794;28;20124;-70
2022/09/03 03:24:14;;;;;;;30.25;21.92;;;;;;;;;;5031055;28;20493;-70
2022/09/03 03:26:40;;;;;;;27.27;20.30;;;;;;;;;;5031051;28;20091;-70
2022/09/03 03:29:07;;;;;;;29.20;20.98;;;;;;;;;;5031667;28;20046;-70
2022/09/03 03:31:33;;;;;;;24.43;17.20;;;;;;;;;;5031591;28;20080;-70
2022/09/03 03:34:01;;;;;;;27.15;20.88;;;;;;;;;;5031425;28;20076;-70
2022/09/03 03:36:29;;;;;;;27.13;20.10;;;;;;;;;;5030240;28;20053;-70
2022/09/03 03:38:56;;;;;;;25.25;20.00;;;;;;;;;;5031558;28;20050;-70
2022/09/03 03:41:23;;;;;;;;;;;;;;;;;;5031845;28;20057;-70
2022/09/03 03:43:53;;;;;;;30.33;20.77;;;;;;;;;;5031489;28;19967;-70
2022/09/03 03:46:21;;;;;;;30.60;20.92;;;;;;;;;;5031321;28;20095;-70
2022/09/03 03:48:47;;;;;;;;;;;;;;;;;;5031909;28;20119;-70
2022/09/03 03:51:14;;;;;;;27.27;18.50;;;;;;;;;;5031132;28;20381;-70
2022/09/03 03:53:40;;;;;;;28.08;18.02;;;;;;;;;;5031025;28;20049;-70
2022/09/03 03:56:08;;;;;;;28.33;19.07;;;;;;;;;;5031163;28;20467;-70
2022/09/03 03:58:36;;;;;;;25.08;17.95;;;;;;;;;;5031021;28;20103;-70
2022/09/03 04:01:10;;;;;;;26.17;16.98;;;;;;;;;;5031148;28;20088;-70
2022/09/03 04:03:36;;;;;;;27.48;18.20;;;;;;;;;;5031295;28;20443;-70
2022/09/03 04:06:04;;;;;;;24.85;18.13;;;;;;;;;;5031533;28;20092;-70
2022/09/03 04:08:33;;;;;;;27.17;18.55;;;;;;;;;;5030937;28;20405;-70
2022/09/03 04:11:00;;;;;;;26.83;18.50;;;;;;;;;;5030935;28;20057;-70
2022/09/03 04:13:27;;;;;;;;;;;;;;;;;;5034439;28;20099;-70
2022/09/03 04:15:59;;;;;;;25.45;18.00;;;;;;;;;;5034392;28;19979;-70
2022/09/03 04:18:25;;;;;;;24.83;19.27;;;;;;;;;;5034618;28;20168;-70
2022/09/03 04:20:51;;;;;;;25.73;18.42;;;;;;;;;;5034246;28;20571;-70
2022/09/03 04:23:18;;;;;;;24.35;18.40;;;;;;;;;;5034101;28;20493;-70
2022/09/03 04:25:50;;;;;;;26.33;19.53;;;;;;;;;;5034152;28;20080;-70
2022/09/03 04:28:17;;;;;;;23.45;17.67;;;;;;;;;;5034256;28;20099;-71
2022/09/03 04:30:43;;;;;;;23.33;18.83;;;;;;;;;;5034529;28;20081;-71
2022/09/03 04:33:14;;;;;;;26.98;19.17;;;;;;;;;;5033085;28;20052;-71
2022/09/03 04:35:42;;;;;;;27.38;19.05;;;;;;;;;;5034140;28;20052;-71
2022/09/03 04:38:08;;;;;;;27.48;19.92;;;;;;;;;;5034050;28;20073;-71
2022/09/03 04:40:35;;;;;;;29.88;20.70;;;;;;;;;;5033940;28;20513;-70
2022/09/03 04:43:02;;;;;;;28.02;20.67;;;;;;;;;;5034157;28;20096;-70
2022/09/03 04:45:29;;;;;;;25.35;19.90;;;;;;;;;;5033830;28;20573;-70
2022/09/03 04:47:55;;;;;;;24.00;20.02;;;;;;;;;;5034078;28;20050;-70
2022/09/03 04:50:22;;;;;;;26.58;19.98;;;;;;;;;;5034121;28;20042;-72
2022/09/03 04:52:48;;;;;;;26.88;19.98;;;;;;;;;;5033752;28;20468;-70
2022/09/03 04:55:15;;;;;;;27.30;20.25;;;;;;;;;;5033670;28;20088;-70
2022/09/03 04:57:43;;;;;;;31.55;21.23;;;;;;;;;;5033684;28;20387;-70
2022/09/03 05:00:10;;;;;;;26.63;20.45;;;;;;;;;;5033450;28;20520;-70
2022/09/03 05:02:37;;;;;;;26.08;19.88;;;;;;;;;;5033965;28;20049;-70
2022/09/03 05:05:03;;;;;;;27.63;21.40;;;;;;;;;;5033530;28;20464;-70
2022/09/03 05:07:37;;;;;;;25.90;20.45;;;;;;;;;;5033753;28;20069;-70
2022/09/03 05:10:07;;;;;;;25.10;20.25;;;;;;;;;;5033821;28;20053;-70
2022/09/03 05:12:34;;;;;;;23.73;19.63;;;;;;;;;;5032166;28;20460;-70
2022/09/03 05:15:00;;;;;;;25.90;19.75;;;;;;;;;;5033663;28;20084;-70
2022/09/03 05:17:26;;;;;;;26.17;20.10;;;;;;;;;;5033324;28;20539;-72
2022/09/03 05:19:53;;;;;;;24.20;20.02;;;;;;;;;;5032373;28;20049;-72
2022/09/03 05:22:22;;;;;;;25.42;19.38;;;;;;;;;;5033082;28;20053;-70
2022/09/03 05:24:49;;;;;;;26.13;19.85;;;;;;;;;;5031918;28;20049;-70
2022/09/03 05:27:16;;;;;;;28.52;21.33;;;;;;;;;;5032166;28;20045;-70
2022/09/03 05:29:43;;;;;;;25.40;20.20;;;;;;;;;;5033427;28;20073;-70
2022/09/03 05:32:10;;;;;;;28.42;20.80;;;;;;;;;;5033026;28;20493;-70
2022/09/03 05:34:36;;;;;;;27.60;20.40;;;;;;;;;;5033172;28;20073;-70
2022/09/03 05:37:02;;;;;;;28.17;21.55;;;;;;;;;;5033018;28;20722;-70
2022/09/03 05:39:29;;;;;;;29.88;21.02;;;;;;;;;;5033160;28;20077;-70
2022/09/03 05:41:56;;;;;;;27.83;21.30;;;;;;;;;;5033214;28;20046;-70
2022/09/03 05:44:22;;;;;;;28.80;21.52;;;;;;;;;;5032766;28;20456;-70
2022/09/03 05:46:50;;;;;;;29.73;21.87;;;;;;;;;;5032754;28;20095;-70
2022/09/03 05:49:16;;;;;;;28.08;21.88;;;;;;;;;;5032421;28;20089;-70
2022/09/03 05:51:43;;;;;;;28.92;22.45;;;;;;;;;;5031759;28;20038;-70
2022/09/03 05:54:10;;;;;;;26.42;22.67;;;;;;;;;;5032084;28;20041;-70
2022/09/03 05:56:38;;;;;;;27.02;21.60;;;;;;;;;;5032071;28;20195;-70
2022/09/03 05:59:06;;;;;;;25.85;21.13;;;;;;;;;;5032586;28;20050;-69
2022/09/03 06:01:33;;;;;;;24.50;20.70;;;;;;;;;;5032688;28;20053;-69
2022/09/03 06:04:00;;;;;;;;;;;;;;;;;;5032797;28;20095;-70
2022/09/03 06:06:28;;;;;;;24.83;20.03;;;;;;;;;;5032614;28;19925;-74
2022/09/03 06:08:56;;;;;;;24.20;20.17;;;;;;;;;;5032576;28;20201;-70
2022/09/03 06:11:26;;;;;;;24.70;20.42;;;;;;;;;;5032600;28;20084;-73
2022/09/03 06:13:57;;;;;;;24.50;20.23;;;;;;;;;;5032242;28;20519;-70
2022/09/03 06:16:24;;;;;;;24.00;19.60;;;;;;;;;;5032199;28;20053;-70
2022/09/03 06:18:57;;;;;;;22.48;20.08;;;;;;;;;;5032057;28;20232;-69
2022/09/03 06:21:24;;;;;;;23.63;20.13;;;;;;;;;;5032310;28;20053;-69
2022/09/03 06:23:57;;;;;;;21.83;19.52;;;;;;;;;;5031846;28;20557;-69
2022/09/03 06:26:27;;;;;;;21.50;19.20;;;;;;;;;;5032102;28;20425;-68
2022/09/03 06:28:53;;;;;;;23.50;20.10;;;;;;;;;;5017183;28;20122;-68
2022/09/03 06:31:21;;;;;;;22.33;19.10;;;;;;;;;;5032281;28;20049;-69
2022/09/03 06:33:47;;;;;;;23.02;20.13;;;;;;;;;;5032194;28;20068;-69
2022/09/03 06:36:15;;;;;;;21.25;18.65;;;;;;;;;;5031891;28;20049;-69
2022/09/03 06:38:42;;;;;;;20.63;18.50;;;;;;;;;;5031576;28;20084;-69
2022/09/03 06:41:10;;;;;;;21.88;19.30;;;;;;;;;;5032141;28;20083;-69
2022/09/03 06:43:38;;;;;;;20.70;18.45;;;;;;;;;;5032101;28;20115;-68
2022/09/03 06:46:15;;;;;;;20.75;18.58;;;;;;;;;;5031485;28;20077;-69
2022/09/03 06:48:42;;;;;;;19.50;17.35;;;;;;;;;;5031358;28;20049;-69
2022/09/03 06:51:15;;;;;;;20.30;18.00;;;;;;;;;;5030344;28;20405;-69
2022/09/03 06:53:43;;;;;;;20.20;18.10;;;;;;;;;;5031614;28;20486;-69
2022/09/03 06:56:10;;;;;;;19.73;17.63;;;;;;;;;;5031549;28;20084;-69
2022/09/03 06:58:41;;;;;;;18.65;16.65;;;;;;;;;;5031768;28;20084;-70
2022/09/03 07:01:17;;;;;;;17.80;15.88;;;;;;;;;;5031552;28;20081;-70
2022/09/03 07:03:46;;;;;;;19.50;16.33;;;;;;;;;;5028762;28;20053;-70
2022/09/03 07:06:14;;;;;;;19.38;15.48;;;;;;;;;;5030790;28;20734;-71
2022/09/03 07:08:41;;;;;;;19.38;15.00;;;;;;;;;;5031235;28;20410;-71
2022/09/03 07:11:09;;;;;;;17.70;14.98;;;;;;;;;;5031215;28;20049;-71
2022/09/03 07:13:38;;;;;;;17.23;14.98;;;;;;;;;;5031186;28;20068;-70
2022/09/03 07:16:05;;;;;;;16.30;13.93;;;;;;;;;;5030927;28;20152;-73
2022/09/03 07:18:32;;;;;;;21.02;15.05;;;;;;;;;;5030761;28;20076;-70
2022/09/03 07:21:00;;;;;;;17.53;14.40;;;;;;;;;;5030732;28;20049;-70
2022/09/03 07:23:27;;;;;;;17.42;14.05;;;;;;;;;;5030990;28;20123;-72
2022/09/03 07:25:54;;;;;;;;;;;;;;;;;;5031727;28;20088;-70
2022/09/03 07:28:20;;;;;;;15.73;13.90;;;;;;;;;;5031479;28;19971;-71
2022/09/03 07:30:47;;;;;;;17.77;13.98;;;;;;;;;;5030841;28;20073;-71
2022/09/03 07:33:13;;;;;;;15.25;13.75;;;;;;;;;;5031581;28;20046;-72
2022/09/03 07:35:40;;;;;;;15.50;13.75;;;;;;;;;;5030765;28;20073;-70
2022/09/03 07:38:06;;;;;;;15.38;12.60;;;;;;;;;;5030658;28;20080;-70
2022/09/03 07:40:33;;;;;;;14.65;13.15;;;;;;;;;;5030577;28;20038;-70
2022/09/03 07:43:02;;;;;;;13.77;11.93;;;;;;;;;;5031123;28;20080;-70
2022/09/03 07:45:29;;;;;;;13.35;11.90;;;;;;;;;;5027919;28;20080;-71
2022/09/03 07:47:55;;;;;;;14.07;12.25;;;;;;;;;;5033206;28;20088;-71
2022/09/03 07:50:22;;;;;;;13.70;12.25;;;;;;;;;;5035107;28;20080;-71
2022/09/03 07:52:49;;;;;;;14.70;12.43;;;;;;;;;;5034738;28;20493;-71
2022/09/03 07:55:15;;;;;;;15.80;14.15;;;;;;;;;;5034963;28;20049;-70
2022/09/03 07:57:42;;;;;;;15.55;13.95;;;;;;;;;;5035068;28;20448;-70
2022/09/03 08:00:08;;;;;;;16.38;14.65;;;;;;;;;;5034755;28;20120;-71
2022/09/03 08:02:35;;;;;;;16.60;14.80;;;;;;;;;;5034941;28;20104;-71
2022/09/03 08:05:01;;;;;;;15.32;13.52;;;;;;;;;;5034662;28;20497;-71
2022/09/03 08:07:29;;;;;;;15.75;14.15;;;;;;;;;;5034517;28;20080;-72
2022/09/03 08:09:56;;;;;;;16.02;14.25;;;;;;;;;;5034320;28;20049;-71
2022/09/03 08:12:22;;;;;;;15.27;13.77;;;;;;;;;;5034612;28;20443;-71
2022/09/03 08:14:50;;;;;;;15.43;13.90;;;;;;;;;;5034525;28;20068;-71
2022/09/03 08:17:16;;;;;;;16.30;14.57;;;;;;;;;;5034302;28;20085;-71
2022/09/03 08:19:44;;;;;;;15.55;13.95;;;;;;;;;;5034335;28;20049;-71
2022/09/03 08:22:11;;;;;;;15.63;14.05;;;;;;;;;;5034497;28;20065;-71
2022/09/03 08:24:38;;;;;;;16.13;14.33;;;;;;;;;;5034209;28;20460;-71
2022/09/03 08:27:04;;;;;;;15.50;14.00;;;;;;;;;;5034236;28;20506;-71
2022/09/03 08:29:31;;;;;;;15.32;13.75;;;;;;;;;;5034089;28;20107;-71
2022/09/03 08:31:57;;;;;;;15.65;14.13;;;;;;;;;;5034504;28;20195;-71
2022/09/03 08:34:25;;;;;;;17.42;15.60;;;;;;;;;;5034002;28;20053;-71
2022/09/03 08:36:51;;;;;;;18.05;16.25;;;;;;;;;;5033840;28;20088;-71
2022/09/03 08:39:18;;;;;;;16.30;14.70;;;;;;;;;;5033876;28;20555;-71
2022/09/03 08:41:45;;;;;;;17.52;14.57;;;;;;;;;;5034293;28;20045;-71
2022/09/03 08:44:24;;;;;;;16.67;15.02;;;;;;;;;;5033923;28;20497;-71
2022/09/03 08:47:04;;;;;;;18.77;16.08;;;;;;;;;;5033791;28;20465;-71
2022/09/03 08:49:49;;;;;;;16.63;15.00;;;;;;;;;;5033751;28;20042;-71
2022/09/03 08:52:16;;;;;;;16.80;15.25;;;;;;;;;;5034362;28;20421;-71
2022/09/03 08:54:43;;;;;;;17.35;15.75;;;;;;;;;;5033780;28;20084;-71
2022/09/03 08:57:11;;;;;;;17.35;15.70;;;;;;;;;;5033783;28;20433;-71
2022/09/03 08:59:37;;;;;;;18.30;16.50;;;;;;;;;;5033237;28;20081;-71
2022/09/03 09:02:07;;;;;;;17.90;16.10;;;;;;;;;;5033561;28;20413;-71
2022/09/03 09:04:42;;;;;;;19.13;17.13;;;;;;;;;;5033603;28;20572;-71
2022/09/03 09:07:16;;;;;;;20.30;18.05;;;;;;;;;;5031430;28;20481;-71
2022/09/03 09:09:53;;;;;;;20.27;18.10;;;;;;;;;;5025186;28;20403;-71
2022/09/03 09:12:22;;;;;;;22.23;19.95;;;;;;;;;;5033226;28;20038;-71
2022/09/03 09:15:25;;;;;;;21.92;19.70;;;;;;;;;;5032894;28;20478;-71
2022/09/03 09:17:57;;;;;;;20.23;18.13;;;;;;;;;;5030262;28;20532;-71
2022/09/03 09:20:28;;;;;;;21.73;19.42;;;;;;;;;;5028203;28;20053;-71
2022/09/03 09:22:58;;;;;;;21.13;18.92;;;;;;;;;;5032126;28;20085;-73
2022/09/03 09:25:25;;;;;;;20.50;18.30;;;;;;;;;;5032569;28;20049;-72
2022/09/03 09:28:02;;;;;;;20.15;17.25;;;;;;;;;;5031404;28;20115;-71
2022/09/03 09:30:29;;;;;;;19.25;17.35;;;;;;;;;;5032188;28;20076;-71
2022/09/03 09:32:56;;;;;;;21.38;18.30;;;;;;;;;;5032477;28;20080;-71
2022/09/03 09:35:23;;;;;;;21.33;18.85;;;;;;;;;;5032235;28;20555;-71
2022/09/03 09:37:51;;;;;;;19.65;17.00;;;;;;;;;;5032083;28;20068;-71
2022/09/03 09:40:25;;;;;;;19.38;17.27;;;;;;;;;;5032424;28;20049;-71
2022/09/03 09:43:02;;;;;;;19.42;17.42;;;;;;;;;;5032828;28;20439;-71
2022/09/03 09:45:31;;;;;;;18.65;16.65;;;;;;;;;;5032862;28;20053;-71
2022/09/03 09:47:58;;;;;;;21.63;17.90;;;;;;;;;;5032626;28;20081;-70
2022/09/03 09:50:25;;;;;;;19.58;17.48;;;;;;;;;;5031857;28;20481;-72
2022/09/03 09:53:21;;;;;;;20.30;17.00;;;;;;;;;;5032382;28;20056;-71
2022/09/03 09:55:54;;;;;;;17.90;15.67;;;;;;;;;;5031572;28;20091;-70
2022/09/03 09:58:22;;;;;;;19.00;16.73;;;;;;;;;;5029016;28;20762;-70
2022/09/03 10:00:55;;;;;;;17.83;15.98;;;;;;;;;;5028453;28;20053;-71
2022/09/03 10:03:26;;;;;;;18.33;16.25;;;;;;;;;;5031646;28;20103;-69
2022/09/03 10:05:59;;;;;;;18.23;16.02;;;;;;;;;;5031835;28;20053;-70
2022/09/03 10:08:26;;;;;;;16.85;15.10;;;;;;;;;;5031943;28;20313;-70
2022/09/03 10:10:52;;;;;;;16.40;14.73;;;;;;;;;;5028284;28;20081;-71
2022/09/03 10:13:42;;;;;;;16.73;14.80;;;;;;;;;;5031252;28;20345;-70
2022/09/03 10:16:19;;;;;;;14.70;13.07;;;;;;;;;;5029889;28;20759;-71
2022/09/03 10:18:46;;;;;;;15.98;14.40;;;;;;;;;;5030988;28;20049;-71
2022/09/03 10:21:28;;;;;;;15.33;13.93;;;;;;;;;;5031122;28;20053;-71
2022/09/03 10:24:14;;;;;;;15.95;14.43;;;;;;;;;;5031516;28;20079;-71
2022/09/03 10:26:44;;;;;;;14.73;13.32;;;;;;;;;;5029063;28;20498;-72
2022/09/03 10:29:20;;;;;;;14.40;12.98;;;;;;;;;;5032012;28;20045;-71
2022/09/03 10:32:15;;;;;;;16.88;13.40;;;;;;;;;;5032302;28;20053;-72
2022/09/03 10:34:47;;;;;;;13.00;11.88;;;;;;;;;;5030780;28;20064;-71
2022/09/03 10:37:14;;;;;;;12.70;11.52;;;;;;;;;;5031724;28;20413;-71
2022/09/03 10:39:50;;;;;;;13.07;11.75;;;;;;;;;;5032034;28;20083;-71
2022/09/03 10:42:20;;;;;;;12.88;11.60;;;;;;;;;;5031858;28;20053;-70
2022/09/03 10:44:50;;;;;;;11.75;10.57;;;;;;;;;;5030572;28;20050;-70
2022/09/03 10:47:35;;;;;;;10.65;8.95;;;;;;;;;;5031555;28;20184;-70
2022/09/03 10:50:01;;;;;;;10.07;8.93;;;;;;;;;;5031923;28;20053;-70
2022/09/03 10:52:48;;;;;;;9.55;8.52;;;;;;;;;;5031875;28;20050;-70
2022/09/03 10:55:23;;;;;;;9.98;8.98;;;;;;;;;;5031946;28;20046;-70
2022/09/03 10:57:57;;;;;;;11.05;9.95;;;;;;;;;;5031528;28;20092;-70
2022/09/03 11:00:25;;;;;;;9.95;9.00;;;;;;;;;;5031434;28;20081;-70
2022/09/03 11:02:58;;;;;;;9.15;8.35;;;;;;;;;;5030655;28;20103;-70
2022/09/03 11:05:30;;;;;;;10.35;8.07;;;;;;;;;;5031891;28;20128;-70
2022/09/03 11:07:57;;;;;;;8.85;7.68;;;;;;;;;;5031450;28;20076;-71
2022/09/03 11:10:25;;;;;;;9.23;8.27;;;;;;;;;;5031686;28;20055;-70
2022/09/03 11:12:56;;;;;;;9.77;8.40;;;;;;;;;;5031765;28;20049;-71
2022/09/03 11:15:22;;;;;;;9.70;8.73;;;;;;;;;;5031433;28;20076;-71
2022/09/03 11:17:58;;;;;;;8.80;7.90;;;;;;;;;;5031335;28;20793;-70
2022/09/03 11:20:25;;;;;;;8.68;7.55;;;;;;;;;;5031347;28;20053;-70
2022/09/03 11:22:54;;;;;;;8.73;7.82;;;;;;;;;;5035442;28;20124;-70
2022/09/03 11:25:24;;;;;;;8.32;7.53;;;;;;;;;;5035793;28;20049;-71
2022/09/03 11:28:10;;;;;;;8.10;6.82;;;;;;;;;;5035291;28;20045;-71
2022/09/03 11:30:56;;;;;;;13.00;7.03;;;;;;;;;;5035272;28;20555;-70
2022/09/03 11:33:24;;;;;;;7.25;6.32;;;;;;;;;;5035055;28;20049;-71
2022/09/03 11:35:59;;;;;;;7.05;6.35;;;;;;;;;;5032605;28;20045;-71
2022/09/03 11:38:32;;;;;;;8.15;6.10;;;;;;;;;;5034847;28;20049;-71
2022/09/03 11:40:59;;;;;;;6.60;5.55;;;;;;;;;;5035171;28;20054;-70
2022/09/03 11:43:26;;;;;;;10.38;6.30;;;;;;;;;;5035078;28;20045;-70
2022/09/03 11:46:05;;;;;;;7.30;6.70;;;;;;;;;;5035076;28;20489;-70
2022/09/03 11:48:32;;;;;;;7.65;6.85;;;;;;;;;;5034942;28;20401;-71
2022/09/03 11:50:58;;;;;;;7.90;7.07;;;;;;;;;;5035044;28;20562;-70
2022/09/03 11:53:27;;;;;;;7.10;6.40;;;;;;;;;;5034934;28;20755;-71
2022/09/03 11:56:01;;;;;;;6.47;5.40;;;;;;;;;;5034831;28;20575;-70
2022/09/03 11:58:35;;;;;;;6.70;4.50;;;;;;;;;;5034787;28;20045;-71
2022/09/03 12:01:04;;;;;;;6.35;5.78;;;;;;;;;;5034613;28;20049;-78
2022/09/03 12:03:47;;;;;;;6.57;5.50;;;;;;;;;;5034768;28;20049;-75
2022/09/03 12:06:14;;;;;;;6.55;5.32;;;;;;;;;;5034016;28;20041;-75
2022/09/03 12:09:00;;;;;;;6.53;5.38;;;;;;;;;;5034434;28;20458;-75
2022/09/03 12:11:29;;;;;;;7.10;4.90;;;;;;;;;;5032891;28;20083;-70
2022/09/03 12:13:58;;;;;;;4.57;4.18;;;;;;;;;;5034759;28;20084;-71
2022/09/03 12:16:37;;;;;;;4.82;4.30;;;;;;;;;;5034849;28;20073;-70
2022/09/03 12:19:09;;;;;;;5.43;4.57;;;;;;;;;;5033194;28;20077;-71
2022/09/03 12:21:39;;;;;;;4.57;4.18;;;;;;;;;;5034742;28;20045;-70
2022/09/03 12:24:10;;;;;;;5.47;4.13;;;;;;;;;;5034327;28;20054;-77
2022/09/03 12:26:38;;;;;;;7.07;3.97;;;;;;;;;;5032475;28;20225;-74
2022/09/03 12:29:05;;;;;;;5.45;4.00;;;;;;;;;;5033760;28;20081;-72
2022/09/03 12:31:49;;;;;;;6.57;4.38;;;;;;;;;;5033760;28;20140;-71
2022/09/03 12:34:16;;;;;;;4.63;3.60;;;;;;;;;;5032953;28;20085;-70
2022/09/03 12:36:43;;;;;;;7.40;4.03;;;;;;;;;;5033643;28;20541;-70
2022/09/03 12:39:12;;;;;;;3.70;3.08;;;;;;;;;;5033509;28;20092;-75
2022/09/03 12:41:52;;;;;;;7.35;3.25;;;;;;;;;;5033191;28;20045;-73
2022/09/03 12:44:28;;;;;;;4.97;3.30;;;;;;;;;;5033076;28;20080;-72
2022/09/03 12:47:04;;;;;;;3.78;2.95;;;;;;;;;;5033610;28;20053;-70
2022/09/03 12:49:52;;;;;;;7.60;3.58;;;;;;;;;;5033079;28;20401;-79
2022/09/03 12:52:30;;;;;;;6.28;3.20;;;;;;;;;;5032759;28;20057;-74
2022/09/03 12:54:59;;;;;;;8.27;3.33;;;;;;;;;;5033326;28;20050;-77
2022/09/03 12:57:29;;;;;;;4.63;3.00;;;;;;;;;;5032854;28;20053;-74
2022/09/03 12:59:57;;;;;;;4.15;3.28;;;;;;;;;;5032701;28;20057;-74
2022/09/03 13:02:28;;;;;;;4.78;3.35;;;;;;;;;;5032975;28;20049;-73
2022/09/03 13:04:55;;;;;;;4.40;4.00;;;;;;;;;;5032804;28;20053;-71
2022/09/03 13:07:25;;;;;;;4.63;3.47;;;;;;;;;;5031613;28;20045;-71
2022/09/03 13:09:55;;;;;;;5.25;4.05;;;;;;;;;;5031279;28;20095;-72
2022/09/03 13:12:28;;;;;;;4.80;4.20;;;;;;;;;;5031516;28;20081;-71
2022/09/03 13:14:55;;;;;;;5.90;4.25;;;;;;;;;;5029605;28;20049;-71
2022/09/03 13:17:22;;;;;;;6.15;4.32;;;;;;;;;;5032864;28;20100;-71
2022/09/03 13:20:07;;;;;;;4.88;3.90;;;;;;;;;;5032793;28;20077;-71
2022/09/03 13:22:33;;;;;;;5.15;4.15;;;;;;;;;;5032202;28;20051;-73
2022/09/03 13:25:07;;;;;;;5.07;4.25;;;;;;;;;;5032595;28;20050;-72
2022/09/03 13:27:37;;;;;;;8.05;4.88;;;;;;;;;;5032386;28;20052;-71
2022/09/03 13:30:12;;;;;;;6.38;4.78;;;;;;;;;;5030305;28;20072;-71
2022/09/03 13:32:51;;;;;;;6.45;4.90;;;;;;;;;;5031262;28;20458;-71
2022/09/03 13:35:20;;;;;;;7.28;5.03;;;;;;;;;;5030817;28;20535;-72
2022/09/03 13:37:51;;;;;;;6.35;5.22;;;;;;;;;;5032084;28;20046;-72
2022/09/03 13:40:30;;;;;;;7.00;5.40;;;;;;;;;;5032392;28;20045;-71
2022/09/03 13:43:02;;;;;;;7.30;4.95;;;;;;;;;;5032190;28;20126;-70
2022/09/03 13:45:42;;;;;;;8.23;4.60;;;;;;;;;;5030948;28;20493;-70
2022/09/03 13:51:09;;;;;;;10.48;3.92;;;;;;;;;;5030668;28;20128;-72
2022/09/03 13:53:48;;;;;;;6.07;3.42;;;;;;;;;;5032093;28;20041;-71
2022/09/03 13:56:41;;;;;;;6.13;3.35;;;;;;;;;;5032159;28;20080;-71
2022/09/03 13:59:12;;;;;;;6.30;3.53;;;;;;;;;;5031691;28;20128;-71
2022/09/03 14:01:44;;;;;;;6.25;3.33;;;;;;;;;;5031936;28;20061;-71
2022/09/03 14:04:20;;;;;;;4.68;3.35;;;;;;;;;;5032293;28;20453;-71
2022/09/03 14:07:07;;;;;;;6.00;3.50;;;;;;;;;;5068418;28;20442;-71
2022/09/03 14:09:45;;;;;;;11.60;3.35;;;;;;;;;;5068576;28;20122;-71
2022/09/03 14:12:18;;;;;;;5.80;3.60;;;;;;;;;;5068322;28;20076;-70
2022/09/03 14:14:45;;;;;;;6.90;3.40;;;;;;;;;;5068330;28;20552;-70
2022/09/03 14:17:11;;;;;;;;;;;;;;;;;;5068702;28;20075;-71
2022/09/03 14:19:47;;;;;;;3.70;3.25;;;;;;;;;;5067359;28;19970;-71
2022/09/03 14:22:19;;;;;;;6.32;3.58;;;;;;;;;;5068155;28;20417;-70
2022/09/03 14:25:00;;;;;;;4.53;3.45;;;;;;;;;;5066898;28;20562;-71
2022/09/03 14:27:28;;;;;;;7.75;3.75;;;;;;;;;;5068103;28;20056;-71
2022/09/03 14:30:02;;;;;;;7.75;4.18;;;;;;;;;;5066757;28;20477;-71
2022/09/03 14:32:31;;;;;;;8.27;4.55;;;;;;;;;;5068131;28;20072;-70
2022/09/03 14:35:26;;;;;;;8.23;3.70;;;;;;;;;;5067892;28;20787;-71
2022/09/03 14:38:02;;;;;;;7.50;3.97;;;;;;;;;;5068095;28;20072;-71
2022/09/03 14:40:30;;;;;;;6.97;3.58;;;;;;;;;;5067770;28;20132;-71
2022/09/03 14:43:12;;;;;;;4.60;3.25;;;;;;;;;;5065204;28;20084;-71
2022/09/03 14:45:51;;;;;;;3.72;3.08;;;;;;;;;;5043676;28;20073;-71
2022/09/03 14:48:29;;;;;;;4.40;3.10;;;;;;;;;;5065141;28;20048;-71
2022/09/03 14:51:07;;;;;;;4.07;2.78;;;;;;;;;;5066174;28;20148;-71
2022/09/03 14:54:05;;;;;;;6.00;2.90;;;;;;;;;;5068352;28;20051;-71
2022/09/03 14:56:40;;;;;;;4.95;2.67;;;;;;;;;;5051135;28;20080;-71